sensor_id;sensor_type;location;lat;lon;timestamp;temperature;humidity
7998;DHT22;4044;49.814;7.828;2022-12-29T00:02:16;11.20;99.90
7998;DHT22;4044;49.814;7.828;2022-12-29T00:04:42;11.20;99.90
7998;DHT22;4044;49.814;7.828;2022-12-29T00:07:08;11.30;99.90
7998;DHT22;4044;49.814;7.828;2022-12-29T00:09:34;11.30;99.90
7998;DHT22;4044;49.814;7.828;2022-12-29T00:12:00;11.20;99.90
7998;DHT22;4044;49.814;7.828;2022-12-29T00:14:27;11.40;99.90
7998;DHT22;4044;49.814;7.828;2022-12-29T00:17:11;11.30;99.90
7998;DHT22;4044;49.814;7.828;2022-12-29T00:19:36;11.20;99.90
7998;DHT22;4044;49.814;7.828;2022-12-29T00:22:20;11.10;99.90
7998;DHT22;4044;49.814;7.828;2022-12-29T00:25:05;11.20;99.90
7998;DHT22;4044;49.814;7.828;2022-12-29T00:27:51;11.20;99.90
7998;DHT22;4044;49.814;7.828;2022-12-29T00:30:35;11.00;99.90
7998;DHT22;4044;49.814;7.828;2022-12-29T00:33:22;10.90;99.90
7998;DHT22;4044;49.814;7.828;2022-12-29T00:36:27;10.80;99.90
7998;DHT22;4044;49.814;7.828;2022-12-29T00:38:58;10.70;99.90
7998;DHT22;4044;49.814;7.828;2022-12-29T00:41:43;10.60;99.90
7998;DHT22;4044;49.814;7.828;2022-12-29T00:44:27;10.60;99.90
7998;DHT22;4044;49.814;7.828;2022-12-29T00:46:52;10.60;99.90
7998;DHT22;4044;49.814;7.828;2022-12-29T00:49:18;10.60;99.90
7998;DHT22;4044;49.814;7.828;2022-12-29T00:52:05;10.70;99.90
7998;DHT22;4044;49.814;7.828;2022-12-29T00:54:32;10.70;99.90
7998;DHT22;4044;49.814;7.828;2022-12-29T00:56:58;10.70;99.90
7998;DHT22;4044;49.814;7.828;2022-12-29T00:59:24;10.70;99.90
7998;DHT22;4044;49.814;7.828;2022-12-29T01:01:52;10.70;99.90
7998;DHT22;4044;49.814;7.828;2022-12-29T01:04:18;10.70;99.90
7998;DHT22;4044;49.814;7.828;2022-12-29T01:06:45;10.80;99.90
7998;DHT22;4044;49.814;7.828;2022-12-29T01:09:11;10.80;99.90
7998;DHT22;4044;49.814;7.828;2022-12-29T01:11:56;10.80;99.90
7998;DHT22;4044;49.814;7.828;2022-12-29T01:14:22;10.90;99.90
7998;DHT22;4044;49.814;7.828;2022-12-29T01:16:48;10.90;99.90
7998;DHT22;4044;49.814;7.828;2022-12-29T01:19:14;10.90;99.90
7998;DHT22;4044;49.814;7.828;2022-12-29T01:21:40;10.90;99.90
7998;DHT22;4044;49.814;7.828;2022-12-29T01:24:06;10.80;99.90
7998;DHT22;4044;49.814;7.828;2022-12-29T01:26:31;10.80;99.90
7998;DHT22;4044;49.814;7.828;2022-12-29T01:28:57;10.80;99.90
7998;DHT22;4044;49.814;7.828;2022-12-29T01:31:23;10.90;99.90
7998;DHT22;4044;49.814;7.828;2022-12-29T01:33:48;10.90;99.90
7998;DHT22;4044;49.814;7.828;2022-12-29T01:36:16;10.90;99.90
7998;DHT22;4044;49.814;7.828;2022-12-29T01:38:42;11.00;99.90
7998;DHT22;4044;49.814;7.828;2022-12-29T01:41:10;10.90;99.90
7998;DHT22;4044;49.814;7.828;2022-12-29T01:43:43;10.80;99.90
7998;DHT22;4044;49.814;7.828;2022-12-29T01:48:59;10.70;99.90
7998;DHT22;4044;49.814;7.828;2022-12-29T01:51:27;10.60;99.90
7998;DHT22;4044;49.814;7.828;2022-12-29T01:53:55;10.60;99.90
7998;DHT22;4044;49.814;7.828;2022-12-29T01:56:21;10.60;99.90
7998;DHT22;4044;49.814;7.828;2022-12-29T01:58:50;10.50;99.90
7998;DHT22;4044;49.814;7.828;2022-12-29T02:01:20;10.40;99.90
7998;DHT22;4044;49.814;7.828;2022-12-29T02:03:47;10.50;99.90
7998;DHT22;4044;49.814;7.828;2022-12-29T02:06:29;10.50;99.90
7998;DHT22;4044;49.814;7.828;2022-12-29T02:08:57;10.50;99.90
7998;DHT22;4044;49.814;7.828;2022-12-29T02:11:25;10.50;99.90
7998;DHT22;4044;49.814;7.828;2022-12-29T02:13:52;10.50;99.90
7998;DHT22;4044;49.814;7.828;2022-12-29T02:19:35;10.50;99.90
7998;DHT22;4044;49.814;7.828;2022-12-29T02:27:46;10.80;99.90
7998;DHT22;4044;49.814;7.828;2022-12-29T02:33:08;11.00;99.90
7998;DHT22;4044;49.814;7.828;2022-12-29T02:36:01;11.10;99.90
7998;DHT22;4044;49.814;7.828;2022-12-29T02:42:03;11.10;99.90
7998;DHT22;4044;49.814;7.828;2022-12-29T02:45:15;11.10;99.90
7998;DHT22;4044;49.814;7.828;2022-12-29T02:47:30;11.00;99.90
7998;DHT22;4044;49.814;7.828;2022-12-29T02:53:02;10.90;99.90
7998;DHT22;4044;49.814;7.828;2022-12-29T02:55:29;10.90;99.90
7998;DHT22;4044;49.814;7.828;2022-12-29T02:58:24;11.00;99.90
7998;DHT22;4044;49.814;7.828;2022-12-29T03:01:10;11.10;99.90
7998;DHT22;4044;49.814;7.828;2022-12-29T03:04:00;11.20;99.90
7998;DHT22;4044;49.814;7.828;2022-12-29T03:06:52;11.30;99.90
7998;DHT22;4044;49.814;7.828;2022-12-29T03:12:08;11.40;99.90
7998;DHT22;4044;49.814;7.828;2022-12-29T03:15:00;11.50;99.90
7998;DHT22;4044;49.814;7.828;2022-12-29T03:18:02;11.60;99.90
7998;DHT22;4044;49.814;7.828;2022-12-29T03:20:56;11.60;99.90
7998;DHT22;4044;49.814;7.828;2022-12-29T03:23:24;11.60;99.90
7998;DHT22;4044;49.814;7.828;2022-12-29T03:25:57;11.70;99.90
7998;DHT22;4044;49.814;7.828;2022-12-29T03:28:28;11.70;99.90
7998;DHT22;4044;49.814;7.828;2022-12-29T03:30:55;11.70;99.90
7998;DHT22;4044;49.814;7.828;2022-12-29T03:33:24;11.80;99.90
7998;DHT22;4044;49.814;7.828;2022-12-29T03:35:52;11.80;99.90
7998;DHT22;4044;49.814;7.828;2022-12-29T03:38:27;11.80;99.90
7998;DHT22;4044;49.814;7.828;2022-12-29T03:40:58;11.80;99.90
7998;DHT22;4044;49.814;7.828;2022-12-29T03:43:24;11.70;99.90
7998;DHT22;4044;49.814;7.828;2022-12-29T03:45:51;11.60;99.90
7998;DHT22;4044;49.814;7.828;2022-12-29T03:48:16;11.60;99.90
7998;DHT22;4044;49.814;7.828;2022-12-29T03:50:42;11.70;99.90
7998;DHT22;4044;49.814;7.828;2022-12-29T03:53:07;11.70;99.90
7998;DHT22;4044;49.814;7.828;2022-12-29T03:55:33;11.80;99.90
7998;DHT22;4044;49.814;7.828;2022-12-29T03:57:58;11.90;99.90
7998;DHT22;4044;49.814;7.828;2022-12-29T04:00:24;11.90;99.90
7998;DHT22;4044;49.814;7.828;2022-12-29T04:02:50;11.90;99.90
7998;DHT22;4044;49.814;7.828;2022-12-29T04:05:15;12.00;99.90
7998;DHT22;4044;49.814;7.828;2022-12-29T04:07:41;12.00;99.90
7998;DHT22;4044;49.814;7.828;2022-12-29T04:10:06;12.00;99.90
7998;DHT22;4044;49.814;7.828;2022-12-29T04:12:32;12.00;99.90
7998;DHT22;4044;49.814;7.828;2022-12-29T04:14:57;12.00;99.90
7998;DHT22;4044;49.814;7.828;2022-12-29T04:17:23;12.10;99.90
7998;DHT22;4044;49.814;7.828;2022-12-29T04:19:48;12.10;99.90
7998;DHT22;4044;49.814;7.828;2022-12-29T04:22:14;12.10;99.90
7998;DHT22;4044;49.814;7.828;2022-12-29T04:24:39;12.10;99.90
7998;DHT22;4044;49.814;7.828;2022-12-29T04:27:05;11.90;99.90
7998;DHT22;4044;49.814;7.828;2022-12-29T04:29:30;11.70;99.90
7998;DHT22;4044;49.814;7.828;2022-12-29T04:31:56;11.70;99.90
7998;DHT22;4044;49.814;7.828;2022-12-29T04:34:21;11.60;99.90
7998;DHT22;4044;49.814;7.828;2022-12-29T04:36:47;11.30;99.90
7998;DHT22;4044;49.814;7.828;2022-12-29T04:39:12;11.20;99.90
7998;DHT22;4044;49.814;7.828;2022-12-29T04:41:38;11.20;99.90
7998;DHT22;4044;49.814;7.828;2022-12-29T04:44:04;11.30;99.90
7998;DHT22;4044;49.814;7.828;2022-12-29T04:46:29;11.40;99.90
7998;DHT22;4044;49.814;7.828;2022-12-29T04:48:55;11.50;99.90
7998;DHT22;4044;49.814;7.828;2022-12-29T04:51:20;11.50;99.90
7998;DHT22;4044;49.814;7.828;2022-12-29T04:53:46;11.60;99.90
7998;DHT22;4044;49.814;7.828;2022-12-29T04:56:11;11.70;99.90
7998;DHT22;4044;49.814;7.828;2022-12-29T04:58:37;11.70;99.90
7998;DHT22;4044;49.814;7.828;2022-12-29T05:01:02;11.80;99.90
7998;DHT22;4044;49.814;7.828;2022-12-29T05:03:28;11.80;99.90
7998;DHT22;4044;49.814;7.828;2022-12-29T05:05:54;11.80;99.90
7998;DHT22;4044;49.814;7.828;2022-12-29T05:08:20;11.90;99.90
7998;DHT22;4044;49.814;7.828;2022-12-29T05:10:46;11.90;99.90
7998;DHT22;4044;49.814;7.828;2022-12-29T05:13:12;11.90;99.90
7998;DHT22;4044;49.814;7.828;2022-12-29T05:15:37;12.00;99.90
7998;DHT22;4044;49.814;7.828;2022-12-29T05:18:03;12.00;99.90
7998;DHT22;4044;49.814;7.828;2022-12-29T05:20:29;12.00;99.90
7998;DHT22;4044;49.814;7.828;2022-12-29T05:22:54;12.00;99.90
7998;DHT22;4044;49.814;7.828;2022-12-29T05:25:20;12.20;99.90
7998;DHT22;4044;49.814;7.828;2022-12-29T05:27:45;12.10;99.90
7998;DHT22;4044;49.814;7.828;2022-12-29T05:30:11;12.20;99.90
7998;DHT22;4044;49.814;7.828;2022-12-29T05:32:37;12.20;99.90
7998;DHT22;4044;49.814;7.828;2022-12-29T05:35:03;12.30;99.90
7998;DHT22;4044;49.814;7.828;2022-12-29T05:37:28;12.30;99.90
7998;DHT22;4044;49.814;7.828;2022-12-29T05:39:54;12.40;99.90
7998;DHT22;4044;49.814;7.828;2022-12-29T05:42:19;12.30;99.90
7998;DHT22;4044;49.814;7.828;2022-12-29T05:44:45;12.40;99.90
7998;DHT22;4044;49.814;7.828;2022-12-29T05:47:11;12.40;99.90
7998;DHT22;4044;49.814;7.828;2022-12-29T05:49:36;12.40;99.90
7998;DHT22;4044;49.814;7.828;2022-12-29T05:52:02;12.50;99.90
7998;DHT22;4044;49.814;7.828;2022-12-29T05:54:27;12.40;99.90
7998;DHT22;4044;49.814;7.828;2022-12-29T05:56:52;12.40;99.90
7998;DHT22;4044;49.814;7.828;2022-12-29T05:59:18;12.30;99.90
7998;DHT22;4044;49.814;7.828;2022-12-29T06:01:43;12.30;99.90
7998;DHT22;4044;49.814;7.828;2022-12-29T06:04:09;12.30;99.90
7998;DHT22;4044;49.814;7.828;2022-12-29T06:06:34;12.20;99.90
7998;DHT22;4044;49.814;7.828;2022-12-29T06:09:00;12.10;99.90
7998;DHT22;4044;49.814;7.828;2022-12-29T06:11:26;12.00;99.90
7998;DHT22;4044;49.814;7.828;2022-12-29T06:13:51;12.00;99.90
7998;DHT22;4044;49.814;7.828;2022-12-29T06:16:17;12.10;99.90
7998;DHT22;4044;49.814;7.828;2022-12-29T06:18:42;12.20;99.90
7998;DHT22;4044;49.814;7.828;2022-12-29T06:21:08;12.10;99.90
7998;DHT22;4044;49.814;7.828;2022-12-29T06:23:33;12.10;99.90
7998;DHT22;4044;49.814;7.828;2022-12-29T06:25:59;12.10;99.90
7998;DHT22;4044;49.814;7.828;2022-12-29T06:28:24;12.10;99.90
7998;DHT22;4044;49.814;7.828;2022-12-29T06:30:50;12.10;99.90
7998;DHT22;4044;49.814;7.828;2022-12-29T06:33:16;12.00;99.90
7998;DHT22;4044;49.814;7.828;2022-12-29T06:35:42;12.00;99.90
7998;DHT22;4044;49.814;7.828;2022-12-29T06:38:08;12.10;99.90
7998;DHT22;4044;49.814;7.828;2022-12-29T06:40:34;12.20;99.90
7998;DHT22;4044;49.814;7.828;2022-12-29T06:42:59;12.20;99.90
7998;DHT22;4044;49.814;7.828;2022-12-29T06:45:25;12.20;99.90
7998;DHT22;4044;49.814;7.828;2022-12-29T06:47:50;12.30;99.90
7998;DHT22;4044;49.814;7.828;2022-12-29T06:50:16;12.10;99.90
7998;DHT22;4044;49.814;7.828;2022-12-29T06:52:41;11.90;99.90
7998;DHT22;4044;49.814;7.828;2022-12-29T06:55:07;11.80;99.90
7998;DHT22;4044;49.814;7.828;2022-12-29T06:57:33;11.80;99.90
7998;DHT22;4044;49.814;7.828;2022-12-29T06:59:59;11.90;99.90
7998;DHT22;4044;49.814;7.828;2022-12-29T07:02:24;12.00;99.90
7998;DHT22;4044;49.814;7.828;2022-12-29T07:04:51;12.00;99.90
7998;DHT22;4044;49.814;7.828;2022-12-29T07:07:18;12.00;99.90
7998;DHT22;4044;49.814;7.828;2022-12-29T07:09:43;11.90;99.90
7998;DHT22;4044;49.814;7.828;2022-12-29T07:12:09;11.90;99.90
7998;DHT22;4044;49.814;7.828;2022-12-29T07:14:34;11.90;99.90
7998;DHT22;4044;49.814;7.828;2022-12-29T07:17:01;12.00;99.90
7998;DHT22;4044;49.814;7.828;2022-12-29T07:19:27;12.00;99.90
7998;DHT22;4044;49.814;7.828;2022-12-29T07:21:54;12.00;99.90
7998;DHT22;4044;49.814;7.828;2022-12-29T07:24:20;12.00;99.90
7998;DHT22;4044;49.814;7.828;2022-12-29T07:26:45;12.00;99.90
7998;DHT22;4044;49.814;7.828;2022-12-29T07:29:10;11.90;99.90
7998;DHT22;4044;49.814;7.828;2022-12-29T07:31:36;11.80;99.90
7998;DHT22;4044;49.814;7.828;2022-12-29T07:34:01;11.80;99.90
7998;DHT22;4044;49.814;7.828;2022-12-29T07:36:27;11.80;99.90
7998;DHT22;4044;49.814;7.828;2022-12-29T07:38:53;11.70;99.90
7998;DHT22;4044;49.814;7.828;2022-12-29T07:41:18;11.70;99.90
7998;DHT22;4044;49.814;7.828;2022-12-29T07:43:47;11.50;99.90
7998;DHT22;4044;49.814;7.828;2022-12-29T07:46:13;11.30;99.90
7998;DHT22;4044;49.814;7.828;2022-12-29T07:48:39;11.20;99.90
7998;DHT22;4044;49.814;7.828;2022-12-29T07:51:05;11.10;99.90
7998;DHT22;4044;49.814;7.828;2022-12-29T07:53:30;11.00;99.90
7998;DHT22;4044;49.814;7.828;2022-12-29T07:55:56;10.90;99.90
7998;DHT22;4044;49.814;7.828;2022-12-29T07:58:21;10.90;99.90
7998;DHT22;4044;49.814;7.828;2022-12-29T08:00:47;11.00;99.90
7998;DHT22;4044;49.814;7.828;2022-12-29T08:03:12;11.10;99.90
7998;DHT22;4044;49.814;7.828;2022-12-29T08:05:38;11.30;99.90
7998;DHT22;4044;49.814;7.828;2022-12-29T08:08:04;11.50;99.90
7998;DHT22;4044;49.814;7.828;2022-12-29T08:10:29;11.60;99.90
7998;DHT22;4044;49.814;7.828;2022-12-29T08:12:55;11.70;99.90
7998;DHT22;4044;49.814;7.828;2022-12-29T08:15:20;11.70;99.90
7998;DHT22;4044;49.814;7.828;2022-12-29T08:17:46;11.80;99.90
7998;DHT22;4044;49.814;7.828;2022-12-29T08:20:11;11.90;99.90
7998;DHT22;4044;49.814;7.828;2022-12-29T08:22:37;12.00;99.90
7998;DHT22;4044;49.814;7.828;2022-12-29T08:25:03;12.10;99.90
7998;DHT22;4044;49.814;7.828;2022-12-29T08:27:28;12.20;99.90
7998;DHT22;4044;49.814;7.828;2022-12-29T08:29:54;12.30;99.90
7998;DHT22;4044;49.814;7.828;2022-12-29T08:32:19;12.30;99.90
7998;DHT22;4044;49.814;7.828;2022-12-29T08:34:45;12.30;99.90
7998;DHT22;4044;49.814;7.828;2022-12-29T08:37:10;12.40;99.90
7998;DHT22;4044;49.814;7.828;2022-12-29T08:39:36;12.40;99.90
7998;DHT22;4044;49.814;7.828;2022-12-29T08:42:01;12.40;99.90
7998;DHT22;4044;49.814;7.828;2022-12-29T08:44:27;12.30;99.90
7998;DHT22;4044;49.814;7.828;2022-12-29T08:46:53;12.20;99.90
7998;DHT22;4044;49.814;7.828;2022-12-29T08:49:18;11.80;99.90
7998;DHT22;4044;49.814;7.828;2022-12-29T08:51:44;11.50;99.90
7998;DHT22;4044;49.814;7.828;2022-12-29T08:54:09;11.40;99.90
7998;DHT22;4044;49.814;7.828;2022-12-29T08:56:35;11.20;99.90
7998;DHT22;4044;49.814;7.828;2022-12-29T08:59:00;11.00;99.90
7998;DHT22;4044;49.814;7.828;2022-12-29T09:01:26;10.80;99.90
7998;DHT22;4044;49.814;7.828;2022-12-29T09:03:53;10.70;99.90
7998;DHT22;4044;49.814;7.828;2022-12-29T09:06:19;10.60;99.90
7998;DHT22;4044;49.814;7.828;2022-12-29T09:08:45;10.40;99.90
7998;DHT22;4044;49.814;7.828;2022-12-29T09:11:14;10.30;99.90
7998;DHT22;4044;49.814;7.828;2022-12-29T09:13:40;10.10;99.90
7998;DHT22;4044;49.814;7.828;2022-12-29T09:16:06;10.00;99.90
7998;DHT22;4044;49.814;7.828;2022-12-29T09:18:32;10.00;99.90
7998;DHT22;4044;49.814;7.828;2022-12-29T09:20:59;10.00;99.90
7998;DHT22;4044;49.814;7.828;2022-12-29T09:23:25;10.00;99.90
7998;DHT22;4044;49.814;7.828;2022-12-29T09:25:51;10.20;99.90
7998;DHT22;4044;49.814;7.828;2022-12-29T09:28:16;10.20;99.90
7998;DHT22;4044;49.814;7.828;2022-12-29T09:30:42;10.10;99.90
7998;DHT22;4044;49.814;7.828;2022-12-29T09:33:07;10.10;99.90
7998;DHT22;4044;49.814;7.828;2022-12-29T09:35:33;9.70;99.90
7998;DHT22;4044;49.814;7.828;2022-12-29T09:38:00;9.70;99.90
7998;DHT22;4044;49.814;7.828;2022-12-29T09:40:28;9.60;99.90
7998;DHT22;4044;49.814;7.828;2022-12-29T09:48:47;9.70;99.90
7998;DHT22;4044;49.814;7.828;2022-12-29T09:51:17;9.40;99.90
7998;DHT22;4044;49.814;7.828;2022-12-29T09:54:00;9.40;99.90
7998;DHT22;4044;49.814;7.828;2022-12-29T09:56:28;9.50;99.90
7998;DHT22;4044;49.814;7.828;2022-12-29T09:59:10;9.50;99.90
7998;DHT22;4044;49.814;7.828;2022-12-29T10:01:43;9.50;99.90
7998;DHT22;4044;49.814;7.828;2022-12-29T10:04:10;9.70;99.90
7998;DHT22;4044;49.814;7.828;2022-12-29T10:15:49;9.90;99.90
7998;DHT22;4044;49.814;7.828;2022-12-29T10:18:38;9.90;99.90
7998;DHT22;4044;49.814;7.828;2022-12-29T10:21:51;9.90;99.90
7998;DHT22;4044;49.814;7.828;2022-12-29T10:24:11;9.90;99.90
7998;DHT22;4044;49.814;7.828;2022-12-29T10:26:40;10.00;99.90
7998;DHT22;4044;49.814;7.828;2022-12-29T10:29:14;10.00;99.90
7998;DHT22;4044;49.814;7.828;2022-12-29T10:31:44;10.10;99.90
7998;DHT22;4044;49.814;7.828;2022-12-29T10:34:33;10.20;99.90
7998;DHT22;4044;49.814;7.828;2022-12-29T10:37:05;10.30;99.90
7998;DHT22;4044;49.814;7.828;2022-12-29T10:39:53;10.40;99.90
7998;DHT22;4044;49.814;7.828;2022-12-29T10:42:33;10.40;99.90
7998;DHT22;4044;49.814;7.828;2022-12-29T10:45:03;10.50;99.90
7998;DHT22;4044;49.814;7.828;2022-12-29T10:47:34;10.70;99.90
7998;DHT22;4044;49.814;7.828;2022-12-29T10:50:02;11.00;99.90
7998;DHT22;4044;49.814;7.828;2022-12-29T10:52:28;11.20;99.90
7998;DHT22;4044;49.814;7.828;2022-12-29T10:55:21;11.40;99.90
7998;DHT22;4044;49.814;7.828;2022-12-29T10:57:48;11.40;99.90
7998;DHT22;4044;49.814;7.828;2022-12-29T11:00:20;11.50;99.90
7998;DHT22;4044;49.814;7.828;2022-12-29T11:05:53;11.40;99.90
7998;DHT22;4044;49.814;7.828;2022-12-29T11:08:25;11.40;99.90
7998;DHT22;4044;49.814;7.828;2022-12-29T11:11:05;11.50;99.90
7998;DHT22;4044;49.814;7.828;2022-12-29T11:13:35;11.70;99.90
7998;DHT22;4044;49.814;7.828;2022-12-29T11:16:01;11.90;99.90
7998;DHT22;4044;49.814;7.828;2022-12-29T11:21:04;11.90;99.90
7998;DHT22;4044;49.814;7.828;2022-12-29T11:28:37;12.10;99.90
7998;DHT22;4044;49.814;7.828;2022-12-29T11:31:04;12.20;99.90
7998;DHT22;4044;49.814;7.828;2022-12-29T11:33:31;12.30;99.90
7998;DHT22;4044;49.814;7.828;2022-12-29T11:36:04;12.30;99.90
7998;DHT22;4044;49.814;7.828;2022-12-29T11:38:36;12.30;99.90
7998;DHT22;4044;49.814;7.828;2022-12-29T11:41:03;12.30;99.90
7998;DHT22;4044;49.814;7.828;2022-12-29T11:45:59;12.30;99.90
7998;DHT22;4044;49.814;7.828;2022-12-29T11:48:32;12.20;99.90
7998;DHT22;4044;49.814;7.828;2022-12-29T11:50:59;12.20;99.90
7998;DHT22;4044;49.814;7.828;2022-12-29T11:53:28;12.30;99.90
7998;DHT22;4044;49.814;7.828;2022-12-29T11:56:08;12.30;99.90
7998;DHT22;4044;49.814;7.828;2022-12-29T11:58:36;12.40;99.90
7998;DHT22;4044;49.814;7.828;2022-12-29T12:01:25;12.50;99.90
7998;DHT22;4044;49.814;7.828;2022-12-29T12:04:14;12.70;99.90
7998;DHT22;4044;49.814;7.828;2022-12-29T12:06:56;12.80;99.90
7998;DHT22;4044;49.814;7.828;2022-12-29T12:09:35;12.80;99.90
7998;DHT22;4044;49.814;7.828;2022-12-29T12:12:03;12.80;99.90
7998;DHT22;4044;49.814;7.828;2022-12-29T12:14:41;12.70;99.90
7998;DHT22;4044;49.814;7.828;2022-12-29T12:17:19;12.60;99.90
7998;DHT22;4044;49.814;7.828;2022-12-29T12:19:59;12.60;99.90
7998;DHT22;4044;49.814;7.828;2022-12-29T12:22:36;12.60;99.90
7998;DHT22;4044;49.814;7.828;2022-12-29T12:25:21;12.60;99.90
7998;DHT22;4044;49.814;7.828;2022-12-29T12:27:51;12.50;99.90
7998;DHT22;4044;49.814;7.828;2022-12-29T12:30:20;12.40;99.90
7998;DHT22;4044;49.814;7.828;2022-12-29T12:35:49;12.30;99.90
7998;DHT22;4044;49.814;7.828;2022-12-29T12:38:38;12.20;99.90
7998;DHT22;4044;49.814;7.828;2022-12-29T12:52:46;13.40;99.90
7998;DHT22;4044;49.814;7.828;2022-12-29T13:01:24;13.50;99.90
7998;DHT22;4044;49.814;7.828;2022-12-29T13:07:38;14.30;99.90
7998;DHT22;4044;49.814;7.828;2022-12-29T13:10:05;14.40;99.90
7998;DHT22;4044;49.814;7.828;2022-12-29T13:20:29;13.80;99.90
7998;DHT22;4044;49.814;7.828;2022-12-29T13:23:09;13.50;99.90
7998;DHT22;4044;49.814;7.828;2022-12-29T13:28:25;13.40;99.90
7998;DHT22;4044;49.814;7.828;2022-12-29T13:31:00;13.50;99.90
7998;DHT22;4044;49.814;7.828;2022-12-29T13:36:16;13.30;98.80
7998;DHT22;4044;49.814;7.828;2022-12-29T13:38:47;13.20;99.60
7998;DHT22;4044;49.814;7.828;2022-12-29T13:43:55;13.20;99.20
7998;DHT22;4044;49.814;7.828;2022-12-29T13:46:28;13.00;99.50
7998;DHT22;4044;49.814;7.828;2022-12-29T13:49:18;12.80;99.30
7998;DHT22;4044;49.814;7.828;2022-12-29T13:57:32;12.60;99.90
7998;DHT22;4044;49.814;7.828;2022-12-29T13:59:58;12.50;99.30
7998;DHT22;4044;49.814;7.828;2022-12-29T14:02:46;12.60;99.60
7998;DHT22;4044;49.814;7.828;2022-12-29T14:07:47;12.70;99.90
7998;DHT22;4044;49.814;7.828;2022-12-29T14:13:20;12.50;99.70
7998;DHT22;4044;49.814;7.828;2022-12-29T14:15:57;12.50;99.50
7998;DHT22;4044;49.814;7.828;2022-12-29T14:18:29;12.50;99.10
7998;DHT22;4044;49.814;7.828;2022-12-29T14:20:59;12.50;99.40
7998;DHT22;4044;49.814;7.828;2022-12-29T14:28:44;12.40;99.90
7998;DHT22;4044;49.814;7.828;2022-12-29T14:36:41;12.40;99.50
7998;DHT22;4044;49.814;7.828;2022-12-29T14:44:48;12.50;99.40
7998;DHT22;4044;49.814;7.828;2022-12-29T14:47:37;12.30;99.20
7998;DHT22;4044;49.814;7.828;2022-12-29T14:52:57;12.00;99.50
7998;DHT22;4044;49.814;7.828;2022-12-29T14:58:17;11.60;98.80
7998;DHT22;4044;49.814;7.828;2022-12-29T15:00:44;11.50;99.00
7998;DHT22;4044;49.814;7.828;2022-12-29T15:03:29;11.50;99.30
7998;DHT22;4044;49.814;7.828;2022-12-29T15:06:05;11.50;99.00
7998;DHT22;4044;49.814;7.828;2022-12-29T15:08:36;11.60;99.50
7998;DHT22;4044;49.814;7.828;2022-12-29T15:11:21;11.60;99.20
7998;DHT22;4044;49.814;7.828;2022-12-29T15:13:48;11.50;99.40
7998;DHT22;4044;49.814;7.828;2022-12-29T15:16:31;11.40;99.00
7998;DHT22;4044;49.814;7.828;2022-12-29T15:18:57;11.30;99.20
7998;DHT22;4044;49.814;7.828;2022-12-29T15:21:29;11.30;99.70
7998;DHT22;4044;49.814;7.828;2022-12-29T15:23:55;11.20;99.70
7998;DHT22;4044;49.814;7.828;2022-12-29T15:26:21;11.10;99.70
7998;DHT22;4044;49.814;7.828;2022-12-29T15:28:49;11.00;99.60
7998;DHT22;4044;49.814;7.828;2022-12-29T15:31:21;10.90;99.70
7998;DHT22;4044;49.814;7.828;2022-12-29T15:33:51;10.90;99.70
7998;DHT22;4044;49.814;7.828;2022-12-29T15:36:24;10.80;99.60
7998;DHT22;4044;49.814;7.828;2022-12-29T15:38:50;10.80;99.80
7998;DHT22;4044;49.814;7.828;2022-12-29T15:41:39;10.80;99.70
7998;DHT22;4044;49.814;7.828;2022-12-29T15:47:02;10.60;99.70
7998;DHT22;4044;49.814;7.828;2022-12-29T15:49:28;10.60;99.80
7998;DHT22;4044;49.814;7.828;2022-12-29T15:51:54;10.50;99.90
7998;DHT22;4044;49.814;7.828;2022-12-29T15:54:21;10.50;99.80
7998;DHT22;4044;49.814;7.828;2022-12-29T15:56:49;10.40;99.90
7998;DHT22;4044;49.814;7.828;2022-12-29T15:59:34;10.30;99.90
7998;DHT22;4044;49.814;7.828;2022-12-29T16:02:01;10.30;99.90
7998;DHT22;4044;49.814;7.828;2022-12-29T16:04:29;10.30;99.90
7998;DHT22;4044;49.814;7.828;2022-12-29T16:07:00;10.20;99.90
7998;DHT22;4044;49.814;7.828;2022-12-29T16:09:34;10.20;99.90
7998;DHT22;4044;49.814;7.828;2022-12-29T16:12:06;10.20;99.90
7998;DHT22;4044;49.814;7.828;2022-12-29T16:14:41;10.10;99.90
7998;DHT22;4044;49.814;7.828;2022-12-29T16:17:13;10.10;99.90
7998;DHT22;4044;49.814;7.828;2022-12-29T16:19:41;10.10;99.90
7998;DHT22;4044;49.814;7.828;2022-12-29T16:22:16;10.10;99.90
7998;DHT22;4044;49.814;7.828;2022-12-29T16:24:42;10.00;99.90
7998;DHT22;4044;49.814;7.828;2022-12-29T16:27:21;10.00;99.90
7998;DHT22;4044;49.814;7.828;2022-12-29T16:29:52;10.00;99.90
7998;DHT22;4044;49.814;7.828;2022-12-29T16:32:28;9.90;99.90
7998;DHT22;4044;49.814;7.828;2022-12-29T16:35:10;9.90;99.90
7998;DHT22;4044;49.814;7.828;2022-12-29T16:37:36;9.90;99.90
7998;DHT22;4044;49.814;7.828;2022-12-29T16:42:49;9.90;99.90
7998;DHT22;4044;49.814;7.828;2022-12-29T16:50:40;10.00;99.90
7998;DHT22;4044;49.814;7.828;2022-12-29T16:53:26;10.00;99.90
7998;DHT22;4044;49.814;7.828;2022-12-29T16:55:54;10.10;99.90
7998;DHT22;4044;49.814;7.828;2022-12-29T16:58:27;10.00;99.90
7998;DHT22;4044;49.814;7.828;2022-12-29T17:00:56;10.00;99.90
7998;DHT22;4044;49.814;7.828;2022-12-29T17:03:26;10.00;99.90
7998;DHT22;4044;49.814;7.828;2022-12-29T17:05:56;9.90;99.90
7998;DHT22;4044;49.814;7.828;2022-12-29T17:08:21;9.90;99.90
7998;DHT22;4044;49.814;7.828;2022-12-29T17:10:51;9.80;99.90
7998;DHT22;4044;49.814;7.828;2022-12-29T17:13:37;9.90;99.90
7998;DHT22;4044;49.814;7.828;2022-12-29T17:16:04;9.80;99.90
7998;DHT22;4044;49.814;7.828;2022-12-29T17:18:30;9.80;99.90
7998;DHT22;4044;49.814;7.828;2022-12-29T17:20:55;9.90;99.90
7998;DHT22;4044;49.814;7.828;2022-12-29T17:23:21;9.90;99.90
7998;DHT22;4044;49.814;7.828;2022-12-29T17:25:46;9.90;99.90
7998;DHT22;4044;49.814;7.828;2022-12-29T17:28:27;9.90;99.90
7998;DHT22;4044;49.814;7.828;2022-12-29T17:31:01;9.80;99.90
7998;DHT22;4044;49.814;7.828;2022-12-29T17:33:27;9.90;99.90
7998;DHT22;4044;49.814;7.828;2022-12-29T17:35:55;9.90;99.90
7998;DHT22;4044;49.814;7.828;2022-12-29T17:38:22;9.90;99.90
7998;DHT22;4044;49.814;7.828;2022-12-29T17:40:50;9.90;99.90
7998;DHT22;4044;49.814;7.828;2022-12-29T17:43:16;9.90;99.90
7998;DHT22;4044;49.814;7.828;2022-12-29T17:45:43;9.90;99.90
7998;DHT22;4044;49.814;7.828;2022-12-29T17:48:18;9.90;99.90
7998;DHT22;4044;49.814;7.828;2022-12-29T17:50:45;9.90;99.90
7998;DHT22;4044;49.814;7.828;2022-12-29T17:53:13;9.90;99.90
7998;DHT22;4044;49.814;7.828;2022-12-29T17:55:40;9.90;99.90
7998;DHT22;4044;49.814;7.828;2022-12-29T17:58:26;9.90;99.90
7998;DHT22;4044;49.814;7.828;2022-12-29T18:00:57;9.90;99.90
7998;DHT22;4044;49.814;7.828;2022-12-29T18:05:57;9.90;99.90
7998;DHT22;4044;49.814;7.828;2022-12-29T18:08:23;9.90;99.90
7998;DHT22;4044;49.814;7.828;2022-12-29T18:10:50;9.90;99.90
7998;DHT22;4044;49.814;7.828;2022-12-29T18:13:21;9.80;99.90
7998;DHT22;4044;49.814;7.828;2022-12-29T18:15:47;9.90;99.90
7998;DHT22;4044;49.814;7.828;2022-12-29T18:18:18;9.80;99.90
7998;DHT22;4044;49.814;7.828;2022-12-29T18:20:45;9.80;99.90
7998;DHT22;4044;49.814;7.828;2022-12-29T18:23:31;9.70;99.90
7998;DHT22;4044;49.814;7.828;2022-12-29T18:28:26;9.60;99.90
7998;DHT22;4044;49.814;7.828;2022-12-29T18:30:53;9.60;99.90
7998;DHT22;4044;49.814;7.828;2022-12-29T18:33:20;9.60;99.90
7998;DHT22;4044;49.814;7.828;2022-12-29T18:38:20;9.40;99.90
7998;DHT22;4044;49.814;7.828;2022-12-29T18:40:47;9.40;99.90
7998;DHT22;4044;49.814;7.828;2022-12-29T18:43:16;9.40;99.90
7998;DHT22;4044;49.814;7.828;2022-12-29T18:45:43;9.30;99.90
7998;DHT22;4044;49.814;7.828;2022-12-29T18:48:15;9.30;99.90